sensor_id;sensor_type;location;lat;lon;timestamp;pressure;altitude;pressure_sealevel;temperature;humidity
32873;BME280;19224;52.462;16.898;2023-02-11T00:00:26;101571.95;;;3.14;100.00
32873;BME280;19224;52.462;16.898;2023-02-11T00:02:58;101568.42;;;3.21;100.00
32873;BME280;19224;52.462;16.898;2023-02-11T00:05:29;101558.21;;;3.19;100.00
32873;BME280;19224;52.462;16.898;2023-02-11T00:07:59;101552.83;;;3.07;100.00
32873;BME280;19224;52.462;16.898;2023-02-11T00:10:29;101547.53;;;3.12;100.00
32873;BME280;19224;52.462;16.898;2023-02-11T00:13:00;101559.51;;;3.12;100.00
32873;BME280;19224;52.462;16.898;2023-02-11T00:15:30;101550.61;;;3.08;100.00
32873;BME280;19224;52.462;16.898;2023-02-11T00:18:00;101553.31;;;3.11;100.00
32873;BME280;19224;52.462;16.898;2023-02-11T00:20:31;101545.30;;;3.07;100.00
32873;BME280;19224;52.462;16.898;2023-02-11T00:23:01;101541.77;;;3.11;100.00
32873;BME280;19224;52.462;16.898;2023-02-11T00:25:31;101541.77;;;3.14;100.00
32873;BME280;19224;52.462;16.898;2023-02-11T00:28:01;101525.37;;;3.14;100.00
32873;BME280;19224;52.462;16.898;2023-02-11T00:30:32;101527.59;;;3.16;100.00
32873;BME280;19224;52.462;16.898;2023-02-11T00:33:06;101533.80;;;3.15;100.00
32873;BME280;19224;52.462;16.898;2023-02-11T00:35:37;101534.69;;;3.11;100.00
32873;BME280;19224;52.462;16.898;2023-02-11T00:38:08;101535.14;;;3.15;100.00
32873;BME280;19224;52.462;16.898;2023-02-11T00:40:38;101532.92;;;3.16;100.00
32873;BME280;19224;52.462;16.898;2023-02-11T00:43:09;101533.37;;;3.17;100.00
32873;BME280;19224;52.462;16.898;2023-02-11T00:45:39;101522.23;;;3.10;100.00
32873;BME280;19224;52.462;16.898;2023-02-11T00:48:12;101497.42;;;3.11;100.00
32873;BME280;19224;52.462;16.898;2023-02-11T00:50:46;101490.75;;;3.10;100.00
32873;BME280;19224;52.462;16.898;2023-02-11T00:53:16;101474.37;;;3.13;100.00
32873;BME280;19224;52.462;16.898;2023-02-11T00:55:46;101454.39;;;3.12;100.00
32873;BME280;19224;52.462;16.898;2023-02-11T00:58:17;101434.91;;;3.19;100.00
32873;BME280;19224;52.462;16.898;2023-02-11T01:00:47;101439.33;;;3.15;100.00
32873;BME280;19224;52.462;16.898;2023-02-11T01:03:18;101435.35;;;3.23;100.00
32873;BME280;19224;52.462;16.898;2023-02-11T01:05:48;101431.78;;;3.13;100.00
32873;BME280;19224;52.462;16.898;2023-02-11T01:08:19;101422.93;;;3.19;100.00
32873;BME280;19224;52.462;16.898;2023-02-11T01:11:00;101418.05;;;3.20;100.00
32873;BME280;19224;52.462;16.898;2023-02-11T01:13:34;101398.52;;;3.13;100.00
32873;BME280;19224;52.462;16.898;2023-02-11T01:16:08;101389.64;;;3.14;100.00
32873;BME280;19224;52.462;16.898;2023-02-11T01:18:39;101377.67;;;3.17;100.00
32873;BME280;19224;52.462;16.898;2023-02-11T01:21:12;101381.25;;;3.22;100.00
32873;BME280;19224;52.462;16.898;2023-02-11T01:23:44;101393.21;;;3.18;100.00
32873;BME280;19224;52.462;16.898;2023-02-11T01:26:14;101386.08;;;3.14;100.00
32873;BME280;19224;52.462;16.898;2023-02-11T01:28:45;101394.08;;;3.18;100.00
32873;BME280;19224;52.462;16.898;2023-02-11T01:31:15;101391.42;;;3.18;100.00
32873;BME280;19224;52.462;16.898;2023-02-11T01:33:46;101391.88;;;3.18;100.00
32873;BME280;19224;52.462;16.898;2023-02-11T01:36:17;101399.84;;;3.19;100.00
32873;BME280;19224;52.462;16.898;2023-02-11T01:38:47;101418.92;;;3.14;100.00
32873;BME280;19224;52.462;16.898;2023-02-11T01:41:17;101411.86;;;3.22;100.00
32873;BME280;19224;52.462;16.898;2023-02-11T01:43:49;101425.58;;;3.14;100.00
32873;BME280;19224;52.462;16.898;2023-02-11T01:46:33;101429.13;;;3.16;100.00
32873;BME280;19224;52.462;16.898;2023-02-11T01:49:17;101437.14;;;3.25;100.00
32873;BME280;19224;52.462;16.898;2023-02-11T01:51:50;101445.09;;;3.19;100.00
32873;BME280;19224;52.462;16.898;2023-02-11T01:54:25;101443.76;;;3.16;100.00
32873;BME280;19224;52.462;16.898;2023-02-11T01:57:16;101457.55;;;3.26;100.00
32873;BME280;19224;52.462;16.898;2023-02-11T02:00:16;101452.67;;;3.30;100.00
32873;BME280;19224;52.462;16.898;2023-02-11T02:03:18;101453.16;;;3.39;100.00
32873;BME280;19224;52.462;16.898;2023-02-11T02:06:00;101442.91;;;3.29;100.00
32873;BME280;19224;52.462;16.898;2023-02-11T02:09:03;101420.31;;;3.35;100.00
32873;BME280;19224;52.462;16.898;2023-02-11T02:11:30;101406.55;;;3.37;100.00
32873;BME280;19224;52.462;16.898;2023-02-11T02:14:00;101409.20;;;3.43;100.00
32873;BME280;19224;52.462;16.898;2023-02-11T02:16:34;101400.78;;;3.42;100.00
32873;BME280;19224;52.462;16.898;2023-02-11T02:28:35;101349.75;;;3.38;100.00
32873;BME280;19224;52.462;16.898;2023-02-11T02:35:02;101366.61;;;3.43;100.00
32873;BME280;19224;52.462;16.898;2023-02-11T02:37:53;101360.84;;;3.39;100.00
32873;BME280;19224;52.462;16.898;2023-02-11T02:40:24;101355.53;;;3.36;100.00
32873;BME280;19224;52.462;16.898;2023-02-11T02:42:55;101353.30;;;3.43;100.00
32873;BME280;19224;52.462;16.898;2023-02-11T02:45:27;101340.44;;;3.38;100.00
32873;BME280;19224;52.462;16.898;2023-02-11T02:47:57;101331.56;;;3.39;100.00
32873;BME280;19224;52.462;16.898;2023-02-11T02:50:31;101332.02;;;3.34;100.00
32873;BME280;19224;52.462;16.898;2023-02-11T03:02:10;101326.25;;;3.48;100.00
32873;BME280;19224;52.462;16.898;2023-02-11T03:05:09;101324.89;;;3.42;100.00
32873;BME280;19224;52.462;16.898;2023-02-11T03:10:32;101335.13;;;3.59;100.00
32873;BME280;19224;52.462;16.898;2023-02-11T03:13:03;101313.81;;;3.55;100.00
32873;BME280;19224;52.462;16.898;2023-02-11T03:15:41;101319.14;;;3.50;100.00
32873;BME280;19224;52.462;16.898;2023-02-11T03:18:16;101312.92;;;3.56;100.00
32873;BME280;19224;52.462;16.898;2023-02-11T03:20:50;101320.48;;;3.52;100.00
32873;BME280;19224;52.462;16.898;2023-02-11T03:23:49;101310.69;;;3.60;100.00
32873;BME280;19224;52.462;16.898;2023-02-11T03:29:30;101291.60;;;3.63;100.00
32873;BME280;19224;52.462;16.898;2023-02-11T03:32:16;101288.94;;;3.63;100.00
32873;BME280;19224;52.462;16.898;2023-02-11T03:34:58;101273.84;;;3.65;100.00
32873;BME280;19224;52.462;16.898;2023-02-11T03:38:03;101270.75;;;3.61;100.00
32873;BME280;19224;52.462;16.898;2023-02-11T03:40:14;101262.77;;;3.61;100.00
32873;BME280;19224;52.462;16.898;2023-02-11T03:42:57;101247.66;;;3.59;100.00
32873;BME280;19224;52.462;16.898;2023-02-11T03:45:30;101263.22;;;3.59;100.00
32873;BME280;19224;52.462;16.898;2023-02-11T03:48:10;101253.89;;;3.59;100.00
32873;BME280;19224;52.462;16.898;2023-02-11T03:50:37;101246.78;;;3.61;100.00
32873;BME280;19224;52.462;16.898;2023-02-11T03:53:10;101258.77;;;3.61;100.00
32873;BME280;19224;52.462;16.898;2023-02-11T03:55:41;101241.91;;;3.64;100.00
32873;BME280;19224;52.462;16.898;2023-02-11T03:58:13;101232.58;;;3.58;100.00
32873;BME280;19224;52.462;16.898;2023-02-11T04:00:45;101219.30;;;3.52;100.00
32873;BME280;19224;52.462;16.898;2023-02-11T04:03:16;101221.01;;;3.66;100.00
32873;BME280;19224;52.462;16.898;2023-02-11T04:05:47;101216.14;;;3.70;100.00
32873;BME280;19224;52.462;16.898;2023-02-11T04:08:17;101209.48;;;3.64;100.00
32873;BME280;19224;52.462;16.898;2023-02-11T04:10:48;101210.36;;;3.66;100.00
32873;BME280;19224;52.462;16.898;2023-02-11T04:13:19;101213.49;;;3.67;100.00
32873;BME280;19224;52.462;16.898;2023-02-11T04:15:49;101206.83;;;3.66;100.00
32873;BME280;19224;52.462;16.898;2023-02-11T04:18:20;101199.28;;;3.68;100.00
32873;BME280;19224;52.462;16.898;2023-02-11T04:20:50;101198.84;;;3.66;100.00
32873;BME280;19224;52.462;16.898;2023-02-11T04:23:21;101205.06;;;3.60;100.00
32873;BME280;19224;52.462;16.898;2023-02-11T04:25:52;101203.73;;;3.56;100.00
32873;BME280;19224;52.462;16.898;2023-02-11T04:28:23;101189.08;;;3.65;100.00
32873;BME280;19224;52.462;16.898;2023-02-11T04:30:55;101190.84;;;3.66;100.00
32873;BME280;19224;52.462;16.898;2023-02-11T04:33:26;101189.95;;;3.68;100.00
32873;BME280;19224;52.462;16.898;2023-02-11T04:35:56;101182.81;;;3.72;100.00
32873;BME280;19224;52.462;16.898;2023-02-11T04:38:27;101173.11;;;3.54;100.00
32873;BME280;19224;52.462;16.898;2023-02-11T04:40:58;101176.19;;;3.70;100.00
32873;BME280;19224;52.462;16.898;2023-02-11T04:43:28;101169.09;;;3.69;100.00
32873;BME280;19224;52.462;16.898;2023-02-11T04:45:59;101183.70;;;3.75;100.00
32873;BME280;19224;52.462;16.898;2023-02-11T04:48:30;101169.98;;;3.62;100.00
32873;BME280;19224;52.462;16.898;2023-02-11T04:51:01;101175.33;;;3.59;100.00
32873;BME280;19224;52.462;16.898;2023-02-11T04:53:32;101178.87;;;3.67;100.00
32873;BME280;19224;52.462;16.898;2023-02-11T04:56:03;101172.63;;;3.65;100.00
32873;BME280;19224;52.462;16.898;2023-02-11T04:58:34;101180.20;;;3.67;100.00
32873;BME280;19224;52.462;16.898;2023-02-11T05:01:11;101169.97;;;3.65;100.00
32873;BME280;19224;52.462;16.898;2023-02-11T05:03:43;101168.20;;;3.64;100.00
32873;BME280;19224;52.462;16.898;2023-02-11T05:06:14;101166.03;;;3.56;100.00
32873;BME280;19224;52.462;16.898;2023-02-11T05:08:45;101154.48;;;3.57;100.00
32873;BME280;19224;52.462;16.898;2023-02-11T05:11:19;101171.80;;;3.57;100.00
32873;BME280;19224;52.462;16.898;2023-02-11T05:13:51;101149.61;;;3.54;100.00
32873;BME280;19224;52.462;16.898;2023-02-11T05:16:21;101146.95;;;3.54;100.00
32873;BME280;19224;52.462;16.898;2023-02-11T05:18:52;101138.91;;;3.64;100.00
32873;BME280;19224;52.462;16.898;2023-02-11T05:21:24;101137.16;;;3.60;100.00
32873;BME280;19224;52.462;16.898;2023-02-11T05:23:54;101146.04;;;3.53;100.00
32873;BME280;19224;52.462;16.898;2023-02-11T05:26:25;101153.98;;;3.65;100.00
32873;BME280;19224;52.462;16.898;2023-02-11T05:28:56;101135.82;;;3.60;100.00
32873;BME280;19224;52.462;16.898;2023-02-11T05:31:27;101131.80;;;3.69;100.00
32873;BME280;19224;52.462;16.898;2023-02-11T05:33:57;101134.91;;;3.64;100.00
32873;BME280;19224;52.462;16.898;2023-02-11T05:36:28;101130.93;;;3.61;100.00
32873;BME280;19224;52.462;16.898;2023-02-11T05:38:59;101144.73;;;3.52;100.00
32873;BME280;19224;52.462;16.898;2023-02-11T05:41:29;101122.52;;;3.62;100.00
32873;BME280;19224;52.462;16.898;2023-02-11T05:44:00;101137.53;;;3.72;100.00
32873;BME280;19224;52.462;16.898;2023-02-11T05:46:30;101120.74;;;3.53;100.00
32873;BME280;19224;52.462;16.898;2023-02-11T05:49:01;101106.94;;;3.70;100.00
32873;BME280;19224;52.462;16.898;2023-02-11T05:51:32;101129.16;;;3.59;100.00
32873;BME280;19224;52.462;16.898;2023-02-11T05:54:03;101111.86;;;3.60;100.00
32873;BME280;19224;52.462;16.898;2023-02-11T05:56:33;101111.83;;;3.63;100.00
32873;BME280;19224;52.462;16.898;2023-02-11T05:59:04;101123.78;;;3.71;100.00
32873;BME280;19224;52.462;16.898;2023-02-11T06:01:34;101117.55;;;3.79;100.00
32873;BME280;19224;52.462;16.898;2023-02-11T06:04:05;101117.59;;;3.64;100.00
32873;BME280;19224;52.462;16.898;2023-02-11T06:06:36;101114.05;;;3.68;100.00
32873;BME280;19224;52.462;16.898;2023-02-11T06:09:07;101115.80;;;3.72;100.00
32873;BME280;19224;52.462;16.898;2023-02-11T06:11:39;101105.13;;;3.78;100.00
32873;BME280;19224;52.462;16.898;2023-02-11T06:14:09;101109.55;;;3.78;100.00
32873;BME280;19224;52.462;16.898;2023-02-11T06:16:40;101117.94;;;3.86;100.00
32873;BME280;19224;52.462;16.898;2023-02-11T06:19:11;101106.02;;;3.74;100.00
32873;BME280;19224;52.462;16.898;2023-02-11T06:21:42;101120.66;;;3.74;100.00
32873;BME280;19224;52.462;16.898;2023-02-11T06:24:13;101111.31;;;3.77;100.00
32873;BME280;19224;52.462;16.898;2023-02-11T06:26:44;101116.23;;;3.73;100.00
32873;BME280;19224;52.462;16.898;2023-02-11T06:29:14;101109.55;;;3.76;100.00
32873;BME280;19224;52.462;16.898;2023-02-11T06:31:45;101117.61;;;3.67;100.00
32873;BME280;19224;52.462;16.898;2023-02-11T06:34:16;101111.33;;;3.80;100.00
32873;BME280;19224;52.462;16.898;2023-02-11T06:36:46;101102.46;;;3.77;100.00
32873;BME280;19224;52.462;16.898;2023-02-11T06:39:17;101098.45;;;3.81;100.00
32873;BME280;19224;52.462;16.898;2023-02-11T06:41:47;101093.56;;;3.76;100.00
32873;BME280;19224;52.462;16.898;2023-02-11T06:44:18;101095.34;;;3.79;100.00
32873;BME280;19224;52.462;16.898;2023-02-11T06:46:48;101113.55;;;3.76;100.00
32873;BME280;19224;52.462;16.898;2023-02-11T06:49:19;101102.96;;;3.67;100.00
32873;BME280;19224;52.462;16.898;2023-02-11T06:51:50;101103.86;;;3.60;100.00
32873;BME280;19224;52.462;16.898;2023-02-11T06:54:20;101114.95;;;3.67;100.00
32873;BME280;19224;52.462;16.898;2023-02-11T06:56:51;101106.46;;;3.78;100.00
32873;BME280;19224;52.462;16.898;2023-02-11T06:59:21;101097.16;;;3.74;100.00
32873;BME280;19224;52.462;16.898;2023-02-11T07:01:52;101095.41;;;3.68;100.00
32873;BME280;19224;52.462;16.898;2023-02-11T07:04:22;101086.04;;;3.76;100.00
32873;BME280;19224;52.462;16.898;2023-02-11T07:06:53;101078.41;;;3.87;100.00
32873;BME280;19224;52.462;16.898;2023-02-11T07:09:23;101088.16;;;3.94;100.00
32873;BME280;19224;52.462;16.898;2023-02-11T07:11:54;101093.47;;;4.00;100.00
32873;BME280;19224;52.462;16.898;2023-02-11T07:14:24;101095.23;;;4.01;100.00
32873;BME280;19224;52.462;16.898;2023-02-11T07:16:55;101098.30;;;4.04;100.00
32873;BME280;19224;52.462;16.898;2023-02-11T07:19:26;101078.42;;;3.89;100.00
32873;BME280;19224;52.462;16.898;2023-02-11T07:21:56;101066.77;;;4.06;100.00
32873;BME280;19224;52.462;16.898;2023-02-11T07:24:27;101062.38;;;3.96;100.00
32873;BME280;19224;52.462;16.898;2023-02-11T07:26:58;101059.27;;;4.01;100.00
32873;BME280;19224;52.462;16.898;2023-02-11T07:29:32;101071.61;;;4.13;100.00
32873;BME280;19224;52.462;16.898;2023-02-11T07:32:05;101060.51;;;4.10;100.00
32873;BME280;19224;52.462;16.898;2023-02-11T07:34:37;101075.61;;;4.14;100.00
32873;BME280;19224;52.462;16.898;2023-02-11T07:37:08;101074.70;;;4.15;100.00
32873;BME280;19224;52.462;16.898;2023-02-11T07:39:38;101063.66;;;4.04;100.00
32873;BME280;19224;52.462;16.898;2023-02-11T07:42:09;101060.05;;;4.15;100.00
32873;BME280;19224;52.462;16.898;2023-02-11T07:44:40;101077.80;;;4.15;100.00
32873;BME280;19224;52.462;16.898;2023-02-11T07:47:10;101063.52;;;4.26;100.00
32873;BME280;19224;52.462;16.898;2023-02-11T07:49:40;101072.42;;;4.25;100.00
32873;BME280;19224;52.462;16.898;2023-02-11T07:52:11;101066.65;;;4.23;100.00
32873;BME280;19224;52.462;16.898;2023-02-11T07:54:41;101063.45;;;4.34;100.00
32873;BME280;19224;52.462;16.898;2023-02-11T07:57:12;101066.22;;;4.23;100.00
32873;BME280;19224;52.462;16.898;2023-02-11T07:59:42;101065.69;;;4.34;100.00
32873;BME280;19224;52.462;16.898;2023-02-11T08:02:12;101068.83;;;4.29;100.00
32873;BME280;19224;52.462;16.898;2023-02-11T08:04:44;101062.09;;;4.38;100.00
32873;BME280;19224;52.462;16.898;2023-02-11T08:07:17;101090.52;;;4.39;100.00
32873;BME280;19224;52.462;16.898;2023-02-11T08:09:47;101083.89;;;4.35;100.00
32873;BME280;19224;52.462;16.898;2023-02-11T08:12:17;101082.62;;;4.27;100.00
32873;BME280;19224;52.462;16.898;2023-02-11T08:14:48;101086.50;;;4.45;100.00
32873;BME280;19224;52.462;16.898;2023-02-11T08:17:18;101083.45;;;4.32;100.00
32873;BME280;19224;52.462;16.898;2023-02-11T08:19:48;101088.33;;;4.36;100.00
32873;BME280;19224;52.462;16.898;2023-02-11T08:22:19;101087.89;;;4.35;100.00
32873;BME280;19224;52.462;16.898;2023-02-11T08:24:49;101072.62;;;4.55;100.00
32873;BME280;19224;52.462;16.898;2023-02-11T08:27:19;101077.09;;;4.51;100.00
32873;BME280;19224;52.462;16.898;2023-02-11T08:29:50;101079.77;;;4.51;100.00
32873;BME280;19224;52.462;16.898;2023-02-11T08:32:21;101074.46;;;4.48;100.00
32873;BME280;19224;52.462;16.898;2023-02-11T08:34:53;101073.92;;;4.59;100.00
32873;BME280;19224;52.462;16.898;2023-02-11T08:37:24;101071.19;;;4.68;100.00
32873;BME280;19224;52.462;16.898;2023-02-11T08:39:54;101071.19;;;4.65;100.00
32873;BME280;19224;52.462;16.898;2023-02-11T08:42:24;101078.36;;;4.58;100.00
32873;BME280;19224;52.462;16.898;2023-02-11T08:44:55;101079.19;;;4.68;100.00
32873;BME280;19224;52.462;16.898;2023-02-11T08:47:25;101073.39;;;4.68;100.00
32873;BME280;19224;52.462;16.898;2023-02-11T08:49:55;101072.88;;;4.75;100.00
32873;BME280;19224;52.462;16.898;2023-02-11T08:52:26;101070.67;;;4.74;100.00
32873;BME280;19224;52.462;16.898;2023-02-11T08:54:56;101063.61;;;4.69;100.00
32873;BME280;19224;52.462;16.898;2023-02-11T08:57:27;101065.30;;;4.79;100.00
32873;BME280;19224;52.462;16.898;2023-02-11T08:59:59;101070.21;;;4.75;100.00
32873;BME280;19224;52.462;16.898;2023-02-11T09:02:29;101060.75;;;4.87;100.00
32873;BME280;19224;52.462;16.898;2023-02-11T09:05:00;101060.80;;;4.84;100.00
32873;BME280;19224;52.462;16.898;2023-02-11T09:07:30;101058.59;;;4.80;100.00
32873;BME280;19224;52.462;16.898;2023-02-11T09:10:01;101070.56;;;4.85;100.00
32873;BME280;19224;52.462;16.898;2023-02-11T09:12:31;101063.03;;;4.83;100.00
32873;BME280;19224;52.462;16.898;2023-02-11T09:15:01;101068.91;;;4.70;100.00
32873;BME280;19224;52.462;16.898;2023-02-11T09:17:32;101070.60;;;4.82;100.00
32873;BME280;19224;52.462;16.898;2023-02-11T09:20:02;101074.09;;;4.90;100.00
32873;BME280;19224;52.462;16.898;2023-02-11T09:22:33;101088.81;;;4.84;100.00
32873;BME280;19224;52.462;16.898;2023-02-11T09:25:03;101073.63;;;4.92;100.00
32873;BME280;19224;52.462;16.898;2023-02-11T09:27:33;101068.24;;;4.95;100.00
32873;BME280;19224;52.462;16.898;2023-02-11T09:30:05;101057.44;;;5.07;100.00
32873;BME280;19224;52.462;16.898;2023-02-11T09:32:35;101053.09;;;5.00;100.00
32873;BME280;19224;52.462;16.898;2023-02-11T09:35:06;101030.13;;;5.21;100.00
32873;BME280;19224;52.462;16.898;2023-02-11T09:37:36;101045.86;;;5.08;100.00
32873;BME280;19224;52.462;16.898;2023-02-11T09:40:09;101060.53;;;5.09;100.00
32873;BME280;19224;52.462;16.898;2023-02-11T09:45:26;101043.56;;;5.15;100.00
32873;BME280;19224;52.462;16.898;2023-02-11T09:48:01;101038.13;;;5.24;100.00
32873;BME280;19224;52.462;16.898;2023-02-11T09:50:39;101026.02;;;5.30;100.00
32873;BME280;19224;52.462;16.898;2023-02-11T09:53:28;101036.66;;;5.34;100.00
32873;BME280;19224;52.462;16.898;2023-02-11T09:56:08;101027.73;;;5.35;100.00
32873;BME280;19224;52.462;16.898;2023-02-11T09:58:43;101038.42;;;5.35;100.00
32873;BME280;19224;52.462;16.898;2023-02-11T10:01:38;101042.33;;;5.43;100.00
32873;BME280;19224;52.462;16.898;2023-02-11T10:07:02;101053.00;;;5.44;100.00
32873;BME280;19224;52.462;16.898;2023-02-11T10:10:03;101049.38;;;5.50;100.00
32873;BME280;19224;52.462;16.898;2023-02-11T10:15:21;101021.52;;;5.69;100.00
32873;BME280;19224;52.462;16.898;2023-02-11T10:21:35;101004.52;;;5.74;100.00
32873;BME280;19224;52.462;16.898;2023-02-11T10:24:09;101004.02;;;5.81;100.00
32873;BME280;19224;52.462;16.898;2023-02-11T10:26:40;101013.69;;;5.88;100.00
32873;BME280;19224;52.462;16.898;2023-02-11T10:29:39;101000.73;;;5.92;100.00
32873;BME280;19224;52.462;16.898;2023-02-11T10:32:26;100995.33;;;5.95;100.00
32873;BME280;19224;52.462;16.898;2023-02-11T10:35:09;100971.81;;;5.90;100.00
32873;BME280;19224;52.462;16.898;2023-02-11T10:37:31;100974.41;;;5.94;100.00
32873;BME280;19224;52.462;16.898;2023-02-11T10:40:02;100966.14;;;6.09;100.00
32873;BME280;19224;52.462;16.898;2023-02-11T10:42:32;100962.09;;;6.11;100.00
32873;BME280;19224;52.462;16.898;2023-02-11T10:45:09;100965.72;;;6.08;100.00
32873;BME280;19224;52.462;16.898;2023-02-11T10:47:40;100970.22;;;6.05;100.00
32873;BME280;19224;52.462;16.898;2023-02-11T10:50:25;100965.02;;;5.96;100.00
32873;BME280;19224;52.462;16.898;2023-02-11T10:55:40;100964.61;;;6.20;100.00
32873;BME280;19224;52.462;16.898;2023-02-11T10:58:20;100955.09;;;6.04;100.00
32873;BME280;19224;52.462;16.898;2023-02-11T11:00:54;100950.67;;;6.01;100.00
32873;BME280;19224;52.462;16.898;2023-02-11T11:03:27;100909.79;;;5.95;100.00
32873;BME280;19224;52.462;16.898;2023-02-11T11:06:01;100901.89;;;5.89;100.00
32873;BME280;19224;52.462;16.898;2023-02-11T11:08:43;100907.73;;;6.12;100.00
32873;BME280;19224;52.462;16.898;2023-02-11T11:11:20;100916.39;;;6.01;100.00
32873;BME280;19224;52.462;16.898;2023-02-11T11:13:58;100905.78;;;5.95;100.00
32873;BME280;19224;52.462;16.898;2023-02-11T11:16:31;100890.86;;;6.07;100.00
32873;BME280;19224;52.462;16.898;2023-02-11T11:21:45;100879.82;;;6.01;100.00
32873;BME280;19224;52.462;16.898;2023-02-11T11:24:28;100887.34;;;6.05;100.00
32873;BME280;19224;52.462;16.898;2023-02-11T11:27:01;100910.28;;;6.18;100.00
32873;BME280;19224;52.462;16.898;2023-02-11T11:29:48;100900.92;;;6.18;100.00
32873;BME280;19224;52.462;16.898;2023-02-11T11:32:33;100904.17;;;6.10;100.00
32873;BME280;19224;52.462;16.898;2023-02-11T11:35:20;100896.06;;;6.16;100.00
32873;BME280;19224;52.462;16.898;2023-02-11T11:37:42;100897.84;;;6.15;100.00
32873;BME280;19224;52.462;16.898;2023-02-11T11:43:15;100932.72;;;6.09;100.00
32873;BME280;19224;52.462;16.898;2023-02-11T11:45:58;100917.45;;;6.16;100.00
32873;BME280;19224;52.462;16.898;2023-02-11T11:48:39;100890.16;;;6.21;100.00
32873;BME280;19224;52.462;16.898;2023-02-11T11:51:11;100912.11;;;6.16;100.00
32873;BME280;19224;52.462;16.898;2023-02-11T11:54:01;100924.77;;;6.05;100.00
32873;BME280;19224;52.462;16.898;2023-02-11T11:56:46;100934.98;;;6.07;100.00
32873;BME280;19224;52.462;16.898;2023-02-11T11:59:16;100975.56;;;6.06;100.00
32873;BME280;19224;52.462;16.898;2023-02-11T12:11:08;100957.02;;;6.21;100.00
32873;BME280;19224;52.462;16.898;2023-02-11T12:25:53;100966.03;;;6.15;100.00
32873;BME280;19224;52.462;16.898;2023-02-11T12:28:39;100976.77;;;6.14;100.00
32873;BME280;19224;52.462;16.898;2023-02-11T12:40:44;100953.42;;;6.23;100.00
32873;BME280;19224;52.462;16.898;2023-02-11T12:49:06;100967.30;;;6.20;100.00
32873;BME280;19224;52.462;16.898;2023-02-11T12:52:05;100954.82;;;6.20;100.00
32873;BME280;19224;52.462;16.898;2023-02-11T12:54:40;100947.57;;;6.27;100.00
32873;BME280;19224;52.462;16.898;2023-02-11T12:57:24;100964.83;;;6.33;100.00
32873;BME280;19224;52.462;16.898;2023-02-11T13:00:22;100974.26;;;6.30;100.00
32873;BME280;19224;52.462;16.898;2023-02-11T13:03:14;100964.05;;;6.28;100.00
32873;BME280;19224;52.462;16.898;2023-02-11T13:06:01;100957.91;;;6.23;100.00
32873;BME280;19224;52.462;16.898;2023-02-11T13:08:53;100965.38;;;6.28;100.00
32873;BME280;19224;52.462;16.898;2023-02-11T13:11:37;100956.08;;;6.25;100.00
32873;BME280;19224;52.462;16.898;2023-02-11T13:14:24;100960.47;;;6.27;100.00
32873;BME280;19224;52.462;16.898;2023-02-11T13:16:55;100959.97;;;6.31;100.00
32873;BME280;19224;52.462;16.898;2023-02-11T13:19:57;100956.38;;;6.33;100.00
32873;BME280;19224;52.462;16.898;2023-02-11T13:22:26;100955.16;;;6.51;100.00
32873;BME280;19224;52.462;16.898;2023-02-11T13:25:17;100959.81;;;6.40;100.00
32873;BME280;19224;52.462;16.898;2023-02-11T13:30:39;100952.13;;;6.47;100.00
32873;BME280;19224;52.462;16.898;2023-02-11T13:33:35;100953.97;;;6.43;100.00
32873;BME280;19224;52.462;16.898;2023-02-11T13:36:24;100956.02;;;6.53;100.00
32873;BME280;19224;52.462;16.898;2023-02-11T13:39:04;100964.86;;;6.58;100.00
32873;BME280;19224;52.462;16.898;2023-02-11T13:41:41;100964.95;;;6.52;100.00
32873;BME280;19224;52.462;16.898;2023-02-11T13:46:56;100978.33;;;6.52;100.00
32873;BME280;19224;52.462;16.898;2023-02-11T13:49:41;100970.45;;;6.44;100.00
32873;BME280;19224;52.462;16.898;2023-02-11T13:52:28;100974.36;;;6.50;100.00
32873;BME280;19224;52.462;16.898;2023-02-11T13:55:21;100973.03;;;6.50;100.00
32873;BME280;19224;52.462;16.898;2023-02-11T14:00:49;100984.38;;;6.63;100.00
32873;BME280;19224;52.462;16.898;2023-02-11T14:03:28;100971.75;;;6.71;100.00
32873;BME280;19224;52.462;16.898;2023-02-11T14:06:22;100973.00;;;6.75;100.00
32873;BME280;19224;52.462;16.898;2023-02-11T14:11:53;100962.54;;;6.62;100.00
32873;BME280;19224;52.462;16.898;2023-02-11T14:14:32;100966.90;;;6.67;100.00
32873;BME280;19224;52.462;16.898;2023-02-11T14:19:46;101002.86;;;6.78;100.00
32873;BME280;19224;52.462;16.898;2023-02-11T14:25:23;100976.13;;;6.75;100.00
32873;BME280;19224;52.462;16.898;2023-02-11T14:27:59;100970.83;;;6.72;100.00
32873;BME280;19224;52.462;16.898;2023-02-11T14:33:38;100987.09;;;6.61;100.00
32873;BME280;19224;52.462;16.898;2023-02-11T14:39:27;101000.78;;;6.68;100.00
32873;BME280;19224;52.462;16.898;2023-02-11T14:41:56;101010.91;;;6.75;100.00
32873;BME280;19224;52.462;16.898;2023-02-11T14:44:31;101023.73;;;6.81;100.00
32873;BME280;19224;52.462;16.898;2023-02-11T14:47:03;101014.57;;;6.71;100.00
32873;BME280;19224;52.462;16.898;2023-02-11T14:49:38;101021.20;;;6.74;100.00
32873;BME280;19224;52.462;16.898;2023-02-11T14:55:57;101030.63;;;6.71;100.00
32873;BME280;19224;52.462;16.898;2023-02-11T14:57:36;101041.67;;;6.78;100.00
32873;BME280;19224;52.462;16.898;2023-02-11T15:00:21;101050.20;;;6.74;100.00
32873;BME280;19224;52.462;16.898;2023-02-11T15:02:52;101052.38;;;6.78;100.00
32873;BME280;19224;52.462;16.898;2023-02-11T15:05:27;101059.07;;;6.78;100.00
32873;BME280;19224;52.462;16.898;2023-02-11T15:08:05;101055.48;;;6.79;100.00